sensor_id;sensor_type;location;lat;lon;timestamp;P1;durP1;ratioP1;P2;durP2;ratioP2
14778;SDS011;7481;53.750;10.570;2024-02-23T00:03:13;2.20;;;1.30;;
14778;SDS011;7481;53.750;10.570;2024-02-23T00:07:51;3.13;;;1.37;;
14778;SDS011;7481;53.750;10.570;2024-02-23T00:12:18;1.40;;;1.00;;
14778;SDS011;7481;53.750;10.570;2024-02-23T00:16:48;3.93;;;1.30;;
14778;SDS011;7481;53.750;10.570;2024-02-23T00:21:22;2.07;;;1.10;;
14778;SDS011;7481;53.750;10.570;2024-02-23T00:25:59;4.20;;;1.20;;
14778;SDS011;7481;53.750;10.570;2024-02-23T00:30:28;1.73;;;1.47;;
14778;SDS011;7481;53.750;10.570;2024-02-23T00:35:10;3.57;;;1.40;;
14778;SDS011;7481;53.750;10.570;2024-02-23T00:39:42;2.47;;;1.53;;
14778;SDS011;7481;53.750;10.570;2024-02-23T00:44:08;3.67;;;1.40;;
14778;SDS011;7481;53.750;10.570;2024-02-23T00:48:35;4.63;;;1.50;;
14778;SDS011;7481;53.750;10.570;2024-02-23T00:53:03;1.60;;;0.93;;
14778;SDS011;7481;53.750;10.570;2024-02-23T00:57:30;0.90;;;0.90;;
14778;SDS011;7481;53.750;10.570;2024-02-23T01:01:58;3.63;;;1.10;;
14778;SDS011;7481;53.750;10.570;2024-02-23T01:06:25;0.83;;;0.83;;
14778;SDS011;7481;53.750;10.570;2024-02-23T01:10:58;1.93;;;1.00;;
14778;SDS011;7481;53.750;10.570;2024-02-23T01:15:21;1.80;;;1.03;;
14778;SDS011;7481;53.750;10.570;2024-02-23T01:19:47;1.20;;;1.10;;
14778;SDS011;7481;53.750;10.570;2024-02-23T01:24:18;1.20;;;1.07;;
14778;SDS011;7481;53.750;10.570;2024-02-23T01:28:50;0.40;;;0.40;;
14778;SDS011;7481;53.750;10.570;2024-02-23T01:33:27;0.60;;;0.60;;
14778;SDS011;7481;53.750;10.570;2024-02-23T01:38:01;0.53;;;0.53;;
14778;SDS011;7481;53.750;10.570;2024-02-23T01:42:33;2.30;;;0.63;;
14778;SDS011;7481;53.750;10.570;2024-02-23T01:47:02;0.40;;;0.40;;
14778;SDS011;7481;53.750;10.570;2024-02-23T01:51:32;1.80;;;0.83;;
14778;SDS011;7481;53.750;10.570;2024-02-23T01:56:05;0.80;;;0.80;;
14778;SDS011;7481;53.750;10.570;2024-02-23T02:00:31;1.37;;;0.90;;
14778;SDS011;7481;53.750;10.570;2024-02-23T02:05:02;0.83;;;0.60;;
14778;SDS011;7481;53.750;10.570;2024-02-23T02:09:30;1.00;;;0.83;;
14778;SDS011;7481;53.750;10.570;2024-02-23T02:14:05;1.23;;;0.90;;
14778;SDS011;7481;53.750;10.570;2024-02-23T02:18:38;0.70;;;0.70;;
14778;SDS011;7481;53.750;10.570;2024-02-23T02:23:06;0.70;;;0.70;;
14778;SDS011;7481;53.750;10.570;2024-02-23T02:27:35;1.43;;;0.60;;
14778;SDS011;7481;53.750;10.570;2024-02-23T02:32:03;1.27;;;0.70;;
14778;SDS011;7481;53.750;10.570;2024-02-23T02:36:45;1.37;;;0.23;;
14778;SDS011;7481;53.750;10.570;2024-02-23T02:41:13;0.30;;;0.27;;
14778;SDS011;7481;53.750;10.570;2024-02-23T02:45:43;0.60;;;0.60;;
14778;SDS011;7481;53.750;10.570;2024-02-23T02:50:09;0.77;;;0.40;;
14778;SDS011;7481;53.750;10.570;2024-02-23T02:54:40;0.87;;;0.40;;
14778;SDS011;7481;53.750;10.570;2024-02-23T02:59:12;0.13;;;0.10;;
14778;SDS011;7481;53.750;10.570;2024-02-23T03:03:42;0.80;;;0.17;;
14778;SDS011;7481;53.750;10.570;2024-02-23T03:08:08;0.10;;;0.10;;
14778;SDS011;7481;53.750;10.570;2024-02-23T03:12:37;1.50;;;0.47;;
14778;SDS011;7481;53.750;10.570;2024-02-23T03:17:07;0.20;;;0.20;;
14778;SDS011;7481;53.750;10.570;2024-02-23T03:21:41;0.20;;;0.20;;
14778;SDS011;7481;53.750;10.570;2024-02-23T03:26:03;0.10;;;0.10;;
14778;SDS011;7481;53.750;10.570;2024-02-23T03:30:28;0.20;;;0.20;;
14778;SDS011;7481;53.750;10.570;2024-02-23T03:35:00;0.30;;;0.30;;
14778;SDS011;7481;53.750;10.570;2024-02-23T03:39:27;0.23;;;0.23;;
14778;SDS011;7481;53.750;10.570;2024-02-23T03:43:56;1.53;;;0.63;;
14778;SDS011;7481;53.750;10.570;2024-02-23T03:48:36;1.57;;;1.00;;
14778;SDS011;7481;53.750;10.570;2024-02-23T03:53:06;2.97;;;1.00;;
14778;SDS011;7481;53.750;10.570;2024-02-23T03:57:31;1.40;;;0.80;;
14778;SDS011;7481;53.750;10.570;2024-02-23T04:02:04;1.00;;;0.83;;
14778;SDS011;7481;53.750;10.570;2024-02-23T04:06:41;1.77;;;1.10;;
14778;SDS011;7481;53.750;10.570;2024-02-23T04:11:12;1.50;;;1.23;;
14778;SDS011;7481;53.750;10.570;2024-02-23T04:15:41;2.47;;;1.27;;
14778;SDS011;7481;53.750;10.570;2024-02-23T04:20:21;1.27;;;1.17;;
14778;SDS011;7481;53.750;10.570;2024-02-23T04:24:54;1.10;;;1.00;;
14778;SDS011;7481;53.750;10.570;2024-02-23T04:29:22;2.37;;;1.30;;
14778;SDS011;7481;53.750;10.570;2024-02-23T04:33:50;2.40;;;1.10;;
14778;SDS011;7481;53.750;10.570;2024-02-23T04:38:12;1.37;;;0.83;;
14778;SDS011;7481;53.750;10.570;2024-02-23T04:42:43;1.83;;;0.83;;
14778;SDS011;7481;53.750;10.570;2024-02-23T04:47:12;1.03;;;0.83;;
14778;SDS011;7481;53.750;10.570;2024-02-23T04:51:39;1.63;;;0.90;;
14778;SDS011;7481;53.750;10.570;2024-02-23T04:56:06;1.60;;;1.20;;
14778;SDS011;7481;53.750;10.570;2024-02-23T05:00:33;1.90;;;0.87;;
14778;SDS011;7481;53.750;10.570;2024-02-23T05:05:08;2.43;;;0.80;;
14778;SDS011;7481;53.750;10.570;2024-02-23T05:09:37;2.00;;;1.10;;
14778;SDS011;7481;53.750;10.570;2024-02-23T05:14:12;2.17;;;1.10;;
14778;SDS011;7481;53.750;10.570;2024-02-23T05:18:51;2.73;;;1.20;;
14778;SDS011;7481;53.750;10.570;2024-02-23T05:23:19;3.03;;;1.27;;
14778;SDS011;7481;53.750;10.570;2024-02-23T05:27:46;2.07;;;1.27;;
14778;SDS011;7481;53.750;10.570;2024-02-23T05:32:12;3.93;;;1.60;;
14778;SDS011;7481;53.750;10.570;2024-02-23T05:36:38;5.30;;;1.70;;
14778;SDS011;7481;53.750;10.570;2024-02-23T05:41:05;2.10;;;1.40;;
14778;SDS011;7481;53.750;10.570;2024-02-23T05:45:33;2.17;;;1.40;;
14778;SDS011;7481;53.750;10.570;2024-02-23T05:50:10;5.03;;;1.80;;
14778;SDS011;7481;53.750;10.570;2024-02-23T05:54:43;3.13;;;1.70;;
14778;SDS011;7481;53.750;10.570;2024-02-23T05:59:14;10.83;;;2.10;;
14778;SDS011;7481;53.750;10.570;2024-02-23T06:03:40;4.27;;;1.73;;
14778;SDS011;7481;53.750;10.570;2024-02-23T06:08:10;3.00;;;1.70;;
14778;SDS011;7481;53.750;10.570;2024-02-23T06:13:00;6.67;;;1.90;;
14778;SDS011;7481;53.750;10.570;2024-02-23T06:17:26;3.87;;;1.67;;
14778;SDS011;7481;53.750;10.570;2024-02-23T06:22:06;2.40;;;1.60;;
14778;SDS011;7481;53.750;10.570;2024-02-23T06:26:45;4.50;;;1.70;;
14778;SDS011;7481;53.750;10.570;2024-02-23T06:31:18;2.87;;;1.63;;
14778;SDS011;7481;53.750;10.570;2024-02-23T06:35:46;2.50;;;1.50;;
14778;SDS011;7481;53.750;10.570;2024-02-23T06:40:11;3.20;;;1.33;;
14778;SDS011;7481;53.750;10.570;2024-02-23T06:44:36;2.60;;;1.60;;
14778;SDS011;7481;53.750;10.570;2024-02-23T06:48:59;6.00;;;2.27;;
14778;SDS011;7481;53.750;10.570;2024-02-23T06:53:26;3.33;;;2.23;;
14778;SDS011;7481;53.750;10.570;2024-02-23T06:57:53;2.03;;;1.50;;
14778;SDS011;7481;53.750;10.570;2024-02-23T07:02:17;3.47;;;1.50;;
14778;SDS011;7481;53.750;10.570;2024-02-23T07:06:42;4.97;;;1.63;;
14778;SDS011;7481;53.750;10.570;2024-02-23T07:11:07;7.43;;;1.87;;
14778;SDS011;7481;53.750;10.570;2024-02-23T07:15:31;2.77;;;1.40;;
14778;SDS011;7481;53.750;10.570;2024-02-23T07:19:54;2.43;;;1.80;;
14778;SDS011;7481;53.750;10.570;2024-02-23T07:24:26;3.03;;;1.57;;
14778;SDS011;7481;53.750;10.570;2024-02-23T07:28:59;5.77;;;2.30;;
14778;SDS011;7481;53.750;10.570;2024-02-23T07:33:22;4.33;;;1.80;;
14778;SDS011;7481;53.750;10.570;2024-02-23T07:37:49;3.53;;;1.80;;
14778;SDS011;7481;53.750;10.570;2024-02-23T07:42:14;4.40;;;1.60;;
14778;SDS011;7481;53.750;10.570;2024-02-23T07:46:43;3.17;;;1.70;;
14778;SDS011;7481;53.750;10.570;2024-02-23T07:51:08;3.70;;;2.07;;
14778;SDS011;7481;53.750;10.570;2024-02-23T07:55:33;2.70;;;1.83;;
14778;SDS011;7481;53.750;10.570;2024-02-23T07:59:57;4.47;;;2.10;;
14778;SDS011;7481;53.750;10.570;2024-02-23T08:04:26;4.00;;;1.77;;
14778;SDS011;7481;53.750;10.570;2024-02-23T08:08:50;3.13;;;2.00;;
14778;SDS011;7481;53.750;10.570;2024-02-23T08:13:17;3.07;;;2.10;;
14778;SDS011;7481;53.750;10.570;2024-02-23T08:17:45;5.83;;;1.93;;
14778;SDS011;7481;53.750;10.570;2024-02-23T08:22:11;4.45;;;1.88;;
14778;SDS011;7481;53.750;10.570;2024-02-23T08:26:41;3.92;;;1.88;;
14778;SDS011;7481;53.750;10.570;2024-02-23T08:31:07;6.32;;;2.20;;
14778;SDS011;7481;53.750;10.570;2024-02-23T08:35:35;5.47;;;1.83;;
14778;SDS011;7481;53.750;10.570;2024-02-23T08:39:59;5.03;;;3.53;;
14778;SDS011;7481;53.750;10.570;2024-02-23T08:44:26;2.40;;;1.80;;
14778;SDS011;7481;53.750;10.570;2024-02-23T08:48:56;4.33;;;2.00;;
14778;SDS011;7481;53.750;10.570;2024-02-23T08:53:21;5.57;;;1.90;;
14778;SDS011;7481;53.750;10.570;2024-02-23T08:57:45;3.47;;;1.60;;
14778;SDS011;7481;53.750;10.570;2024-02-23T09:02:13;4.13;;;1.77;;
14778;SDS011;7481;53.750;10.570;2024-02-23T09:06:36;3.03;;;1.80;;
14778;SDS011;7481;53.750;10.570;2024-02-23T09:11:01;4.13;;;1.50;;
14778;SDS011;7481;53.750;10.570;2024-02-23T09:15:25;3.70;;;1.80;;
14778;SDS011;7481;53.750;10.570;2024-02-23T09:19:50;6.53;;;2.33;;
14778;SDS011;7481;53.750;10.570;2024-02-23T09:24:12;4.80;;;1.90;;
14778;SDS011;7481;53.750;10.570;2024-02-23T09:28:35;5.47;;;1.70;;
14778;SDS011;7481;53.750;10.570;2024-02-23T09:33:00;1.97;;;1.60;;
14778;SDS011;7481;53.750;10.570;2024-02-23T09:37:28;3.23;;;1.70;;
14778;SDS011;7481;53.750;10.570;2024-02-23T09:42:03;3.80;;;2.00;;
14778;SDS011;7481;53.750;10.570;2024-02-23T09:46:31;4.07;;;1.80;;
14778;SDS011;7481;53.750;10.570;2024-02-23T09:50:56;5.83;;;1.87;;
14778;SDS011;7481;53.750;10.570;2024-02-23T09:55:23;4.20;;;1.87;;
14778;SDS011;7481;53.750;10.570;2024-02-23T09:59:47;4.43;;;1.50;;
14778;SDS011;7481;53.750;10.570;2024-02-23T10:04:13;2.93;;;1.70;;
14778;SDS011;7481;53.750;10.570;2024-02-23T10:08:41;3.83;;;1.93;;
14778;SDS011;7481;53.750;10.570;2024-02-23T10:13:13;2.53;;;1.50;;
14778;SDS011;7481;53.750;10.570;2024-02-23T10:17:36;4.07;;;2.10;;
14778;SDS011;7481;53.750;10.570;2024-02-23T10:22:03;4.50;;;1.83;;
14778;SDS011;7481;53.750;10.570;2024-02-23T10:26:26;5.77;;;2.07;;
14778;SDS011;7481;53.750;10.570;2024-02-23T10:30:50;4.27;;;1.50;;
14778;SDS011;7481;53.750;10.570;2024-02-23T10:35:15;2.90;;;1.60;;
14778;SDS011;7481;53.750;10.570;2024-02-23T10:39:39;6.43;;;2.00;;
14778;SDS011;7481;53.750;10.570;2024-02-23T10:44:05;6.93;;;1.63;;
14778;SDS011;7481;53.750;10.570;2024-02-23T10:48:33;5.47;;;1.60;;
14778;SDS011;7481;53.750;10.570;2024-02-23T10:52:59;4.00;;;2.33;;
14778;SDS011;7481;53.750;10.570;2024-02-23T10:57:25;4.30;;;1.50;;
14778;SDS011;7481;53.750;10.570;2024-02-23T11:01:51;3.47;;;1.40;;
14778;SDS011;7481;53.750;10.570;2024-02-23T11:06:19;5.77;;;2.07;;
14778;SDS011;7481;53.750;10.570;2024-02-23T11:10:49;4.70;;;1.60;;
14778;SDS011;7481;53.750;10.570;2024-02-23T11:15:28;5.10;;;1.70;;
14778;SDS011;7481;53.750;10.570;2024-02-23T11:19:54;6.80;;;2.50;;
14778;SDS011;7481;53.750;10.570;2024-02-23T11:24:19;4.20;;;1.60;;
14778;SDS011;7481;53.750;10.570;2024-02-23T11:28:53;2.90;;;1.77;;
14778;SDS011;7481;53.750;10.570;2024-02-23T11:33:27;5.03;;;1.90;;
14778;SDS011;7481;53.750;10.570;2024-02-23T11:37:56;4.40;;;1.50;;
14778;SDS011;7481;53.750;10.570;2024-02-23T11:42:29;4.63;;;1.37;;
14778;SDS011;7481;53.750;10.570;2024-02-23T11:46:59;1.77;;;1.30;;
14778;SDS011;7481;53.750;10.570;2024-02-23T11:51:29;5.97;;;1.47;;
14778;SDS011;7481;53.750;10.570;2024-02-23T11:56:03;3.90;;;1.40;;
14778;SDS011;7481;53.750;10.570;2024-02-23T12:00:30;4.00;;;1.77;;
14778;SDS011;7481;53.750;10.570;2024-02-23T12:04:55;2.60;;;1.40;;
14778;SDS011;7481;53.750;10.570;2024-02-23T12:09:18;3.37;;;1.60;;
14778;SDS011;7481;53.750;10.570;2024-02-23T12:13:45;5.53;;;1.90;;
14778;SDS011;7481;53.750;10.570;2024-02-23T12:18:12;4.27;;;1.40;;
14778;SDS011;7481;53.750;10.570;2024-02-23T12:22:37;3.23;;;1.57;;
14778;SDS011;7481;53.750;10.570;2024-02-23T12:27:02;4.87;;;1.80;;
14778;SDS011;7481;53.750;10.570;2024-02-23T12:31:32;3.30;;;1.50;;
14778;SDS011;7481;53.750;10.570;2024-02-23T12:36:01;4.27;;;1.60;;
14778;SDS011;7481;53.750;10.570;2024-02-23T12:40:32;4.67;;;1.40;;
14778;SDS011;7481;53.750;10.570;2024-02-23T12:44:56;6.53;;;1.50;;
14778;SDS011;7481;53.750;10.570;2024-02-23T12:49:20;1.87;;;0.70;;
14778;SDS011;7481;53.750;10.570;2024-02-23T12:53:49;3.17;;;1.20;;
14778;SDS011;7481;53.750;10.570;2024-02-23T12:58:16;2.77;;;0.93;;
14778;SDS011;7481;53.750;10.570;2024-02-23T13:02:41;1.60;;;1.13;;
14778;SDS011;7481;53.750;10.570;2024-02-23T13:07:05;2.73;;;1.50;;
14778;SDS011;7481;53.750;10.570;2024-02-23T13:11:36;3.67;;;1.30;;
14778;SDS011;7481;53.750;10.570;2024-02-23T13:16:02;4.50;;;1.60;;
14778;SDS011;7481;53.750;10.570;2024-02-23T13:20:29;2.33;;;1.47;;
14778;SDS011;7481;53.750;10.570;2024-02-23T13:25:04;1.27;;;1.10;;
14778;SDS011;7481;53.750;10.570;2024-02-23T13:29:35;2.50;;;1.60;;
14778;SDS011;7481;53.750;10.570;2024-02-23T13:34:01;1.45;;;1.10;;
14778;SDS011;7481;53.750;10.570;2024-02-23T13:38:31;3.03;;;1.30;;
14778;SDS011;7481;53.750;10.570;2024-02-23T13:43:01;5.60;;;1.30;;
14778;SDS011;7481;53.750;10.570;2024-02-23T13:47:26;2.17;;;1.40;;
14778;SDS011;7481;53.750;10.570;2024-02-23T13:51:57;4.63;;;1.40;;
14778;SDS011;7481;53.750;10.570;2024-02-23T13:56:21;3.07;;;1.47;;
14778;SDS011;7481;53.750;10.570;2024-02-23T14:00:49;3.43;;;1.50;;
14778;SDS011;7481;53.750;10.570;2024-02-23T14:05:11;3.17;;;1.23;;
14778;SDS011;7481;53.750;10.570;2024-02-23T14:09:37;2.88;;;1.50;;
14778;SDS011;7481;53.750;10.570;2024-02-23T14:14:00;1.50;;;1.20;;
14778;SDS011;7481;53.750;10.570;2024-02-23T14:18:29;4.00;;;1.10;;
14778;SDS011;7481;53.750;10.570;2024-02-23T14:23:00;2.40;;;0.97;;
14778;SDS011;7481;53.750;10.570;2024-02-23T14:27:25;1.83;;;1.20;;
14778;SDS011;7481;53.750;10.570;2024-02-23T14:31:53;2.00;;;1.07;;
14778;SDS011;7481;53.750;10.570;2024-02-23T14:36:21;2.83;;;1.10;;
14778;SDS011;7481;53.750;10.570;2024-02-23T14:40:47;2.13;;;0.97;;
14778;SDS011;7481;53.750;10.570;2024-02-23T14:45:09;5.30;;;1.60;;
14778;SDS011;7481;53.750;10.570;2024-02-23T14:49:37;3.38;;;1.33;;
14778;SDS011;7481;53.750;10.570;2024-02-23T14:54:12;4.80;;;1.50;;
14778;SDS011;7481;53.750;10.570;2024-02-23T14:58:37;10.73;;;5.57;;
14778;SDS011;7481;53.750;10.570;2024-02-23T15:03:01;2.83;;;2.00;;
14778;SDS011;7481;53.750;10.570;2024-02-23T15:07:26;5.73;;;3.60;;
14778;SDS011;7481;53.750;10.570;2024-02-23T15:11:50;2.70;;;1.47;;
14778;SDS011;7481;53.750;10.570;2024-02-23T15:16:17;1.50;;;1.00;;
14778;SDS011;7481;53.750;10.570;2024-02-23T15:20:39;1.90;;;1.10;;
14778;SDS011;7481;53.750;10.570;2024-02-23T15:25:04;1.10;;;0.97;;
14778;SDS011;7481;53.750;10.570;2024-02-23T15:29:32;2.10;;;1.10;;
14778;SDS011;7481;53.750;10.570;2024-02-23T15:33:59;2.23;;;1.30;;
14778;SDS011;7481;53.750;10.570;2024-02-23T15:38:27;2.53;;;1.50;;
14778;SDS011;7481;53.750;10.570;2024-02-23T15:42:55;1.53;;;0.90;;
14778;SDS011;7481;53.750;10.570;2024-02-23T15:47:21;3.60;;;1.23;;
14778;SDS011;7481;53.750;10.570;2024-02-23T15:51:47;3.23;;;1.43;;
14778;SDS011;7481;53.750;10.570;2024-02-23T15:56:22;1.77;;;1.13;;
14778;SDS011;7481;53.750;10.570;2024-02-23T16:00:49;2.13;;;1.47;;
14778;SDS011;7481;53.750;10.570;2024-02-23T16:05:19;1.30;;;1.10;;
14778;SDS011;7481;53.750;10.570;2024-02-23T16:09:43;3.13;;;1.47;;
14778;SDS011;7481;53.750;10.570;2024-02-23T16:14:07;2.57;;;1.63;;
14778;SDS011;7481;53.750;10.570;2024-02-23T16:18:30;2.50;;;1.13;;
14778;SDS011;7481;53.750;10.570;2024-02-23T16:22:54;3.73;;;1.10;;
14778;SDS011;7481;53.750;10.570;2024-02-23T16:27:19;5.67;;;1.43;;
14778;SDS011;7481;53.750;10.570;2024-02-23T16:31:43;7.53;;;2.63;;
14778;SDS011;7481;53.750;10.570;2024-02-23T16:36:05;3.00;;;1.60;;
14778;SDS011;7481;53.750;10.570;2024-02-23T16:40:30;3.33;;;1.23;;
14778;SDS011;7481;53.750;10.570;2024-02-23T16:45:00;3.27;;;1.23;;
14778;SDS011;7481;53.750;10.570;2024-02-23T16:49:28;5.13;;;2.70;;
14778;SDS011;7481;53.750;10.570;2024-02-23T16:54:01;2.27;;;2.03;;
14778;SDS011;7481;53.750;10.570;2024-02-23T16:58:30;5.37;;;2.83;;
14778;SDS011;7481;53.750;10.570;2024-02-23T17:03:05;1.87;;;1.20;;
14778;SDS011;7481;53.750;10.570;2024-02-23T17:07:33;2.33;;;1.70;;
14778;SDS011;7481;53.750;10.570;2024-02-23T17:11:58;2.50;;;1.83;;
14778;SDS011;7481;53.750;10.570;2024-02-23T17:16:26;3.13;;;1.60;;
14778;SDS011;7481;53.750;10.570;2024-02-23T17:20:56;2.77;;;1.40;;
14778;SDS011;7481;53.750;10.570;2024-02-23T17:25:24;3.20;;;1.27;;
14778;SDS011;7481;53.750;10.570;2024-02-23T17:29:56;5.23;;;1.87;;
14778;SDS011;7481;53.750;10.570;2024-02-23T17:34:27;3.60;;;1.53;;
14778;SDS011;7481;53.750;10.570;2024-02-23T17:38:57;3.63;;;1.77;;
14778;SDS011;7481;53.750;10.570;2024-02-23T17:43:25;3.53;;;2.00;;
14778;SDS011;7481;53.750;10.570;2024-02-23T17:48:02;4.53;;;1.70;;
14778;SDS011;7481;53.750;10.570;2024-02-23T17:52:34;5.30;;;2.07;;
14778;SDS011;7481;53.750;10.570;2024-02-23T17:57:06;4.73;;;1.70;;
14778;SDS011;7481;53.750;10.570;2024-02-23T18:01:29;5.37;;;1.50;;
14778;SDS011;7481;53.750;10.570;2024-02-23T18:06:09;3.47;;;1.40;;
14778;SDS011;7481;53.750;10.570;2024-02-23T18:10:36;3.43;;;1.40;;
14778;SDS011;7481;53.750;10.570;2024-02-23T18:15:07;2.97;;;1.40;;
14778;SDS011;7481;53.750;10.570;2024-02-23T18:19:38;2.20;;;0.93;;
14778;SDS011;7481;53.750;10.570;2024-02-23T18:24:19;3.37;;;1.40;;
14778;SDS011;7481;53.750;10.570;2024-02-23T18:28:48;3.03;;;1.60;;
14778;SDS011;7481;53.750;10.570;2024-02-23T18:33:14;4.37;;;1.93;;
14778;SDS011;7481;53.750;10.570;2024-02-23T18:37:46;5.03;;;2.03;;
14778;SDS011;7481;53.750;10.570;2024-02-23T18:42:12;4.57;;;2.10;;
14778;SDS011;7481;53.750;10.570;2024-02-23T18:46:35;1.60;;;1.20;;
14778;SDS011;7481;53.750;10.570;2024-02-23T18:51:06;2.43;;;1.60;;
14778;SDS011;7481;53.750;10.570;2024-02-23T18:55:46;4.00;;;2.00;;
14778;SDS011;7481;53.750;10.570;2024-02-23T19:00:13;5.27;;;1.60;;
14778;SDS011;7481;53.750;10.570;2024-02-23T19:04:44;2.90;;;2.27;;
14778;SDS011;7481;53.750;10.570;2024-02-23T19:09:12;2.57;;;1.60;;
14778;SDS011;7481;53.750;10.570;2024-02-23T19:13:45;6.13;;;3.37;;
14778;SDS011;7481;53.750;10.570;2024-02-23T19:18:24;3.43;;;2.10;;
14778;SDS011;7481;53.750;10.570;2024-02-23T19:22:53;9.50;;;4.37;;
14778;SDS011;7481;53.750;10.570;2024-02-23T19:27:34;23.90;;;9.97;;
14778;SDS011;7481;53.750;10.570;2024-02-23T19:32:02;26.77;;;10.03;;
14778;SDS011;7481;53.750;10.570;2024-02-23T19:36:31;41.33;;;16.97;;
14778;SDS011;7481;53.750;10.570;2024-02-23T19:41:04;4.10;;;2.30;;
14778;SDS011;7481;53.750;10.570;2024-02-23T19:45:32;3.33;;;2.10;;
14778;SDS011;7481;53.750;10.570;2024-02-23T19:50:02;3.07;;;2.20;;
14778;SDS011;7481;53.750;10.570;2024-02-23T19:54:27;2.60;;;1.83;;
14778;SDS011;7481;53.750;10.570;2024-02-23T19:58:54;3.77;;;2.00;;
14778;SDS011;7481;53.750;10.570;2024-02-23T20:03:33;2.50;;;1.60;;
14778;SDS011;7481;53.750;10.570;2024-02-23T20:08:10;5.17;;;2.67;;
14778;SDS011;7481;53.750;10.570;2024-02-23T20:12:34;3.40;;;2.07;;
14778;SDS011;7481;53.750;10.570;2024-02-23T20:17:02;4.70;;;3.03;;
14778;SDS011;7481;53.750;10.570;2024-02-23T20:21:38;16.73;;;9.53;;
14778;SDS011;7481;53.750;10.570;2024-02-23T20:26:13;16.17;;;8.57;;
14778;SDS011;7481;53.750;10.570;2024-02-23T20:30:40;11.83;;;5.93;;
14778;SDS011;7481;53.750;10.570;2024-02-23T20:35:08;13.47;;;6.97;;
14778;SDS011;7481;53.750;10.570;2024-02-23T20:39:42;18.67;;;9.53;;
14778;SDS011;7481;53.750;10.570;2024-02-23T20:44:20;10.00;;;4.70;;
14778;SDS011;7481;53.750;10.570;2024-02-23T20:48:48;23.70;;;10.03;;
14778;SDS011;7481;53.750;10.570;2024-02-23T20:53:28;45.50;;;16.63;;
14778;SDS011;7481;53.750;10.570;2024-02-23T20:58:01;94.63;;;32.13;;
14778;SDS011;7481;53.750;10.570;2024-02-23T21:02:24;20.93;;;7.97;;
14778;SDS011;7481;53.750;10.570;2024-02-23T21:07:09;11.50;;;6.10;;
14778;SDS011;7481;53.750;10.570;2024-02-23T21:11:42;6.47;;;3.97;;
14778;SDS011;7481;53.750;10.570;2024-02-23T21:16:33;6.87;;;3.57;;
14778;SDS011;7481;53.750;10.570;2024-02-23T21:21:16;15.50;;;8.27;;
14778;SDS011;7481;53.750;10.570;2024-02-23T21:25:47;10.83;;;6.57;;
14778;SDS011;7481;53.750;10.570;2024-02-23T21:30:13;9.30;;;5.43;;
14778;SDS011;7481;53.750;10.570;2024-02-23T21:34:36;9.07;;;5.57;;
14778;SDS011;7481;53.750;10.570;2024-02-23T21:43:45;7.75;;;4.45;;
14778;SDS011;7481;53.750;10.570;2024-02-23T21:48:56;4.83;;;2.70;;
14778;SDS011;7481;53.750;10.570;2024-02-23T21:53:44;5.33;;;2.47;;
14778;SDS011;7481;53.750;10.570;2024-02-23T21:58:38;4.93;;;2.23;;
14778;SDS011;7481;53.750;10.570;2024-02-23T22:03:08;4.10;;;2.20;;
14778;SDS011;7481;53.750;10.570;2024-02-23T22:07:33;4.40;;;1.80;;
14778;SDS011;7481;53.750;10.570;2024-02-23T22:12:00;15.50;;;8.27;;
14778;SDS011;7481;53.750;10.570;2024-02-23T22:16:31;5.50;;;3.07;;
14778;SDS011;7481;53.750;10.570;2024-02-23T22:21:02;3.43;;;1.83;;
14778;SDS011;7481;53.750;10.570;2024-02-23T22:25:29;2.87;;;1.60;;
14778;SDS011;7481;53.750;10.570;2024-02-23T22:30:04;3.40;;;1.47;;
14778;SDS011;7481;53.750;10.570;2024-02-23T22:34:33;3.33;;;1.47;;
14778;SDS011;7481;53.750;10.570;2024-02-23T22:38:59;2.63;;;2.10;;
14778;SDS011;7481;53.750;10.570;2024-02-23T22:43:26;2.50;;;1.53;;
14778;SDS011;7481;53.750;10.570;2024-02-23T22:47:49;2.73;;;1.70;;
14778;SDS011;7481;53.750;10.570;2024-02-23T22:52:20;3.63;;;1.70;;
14778;SDS011;7481;53.750;10.570;2024-02-23T22:56:57;4.53;;;1.70;;
14778;SDS011;7481;53.750;10.570;2024-02-23T23:01:27;5.20;;;2.00;;
14778;SDS011;7481;53.750;10.570;2024-02-23T23:05:56;2.53;;;1.30;;
14778;SDS011;7481;53.750;10.570;2024-02-23T23:10:42;3.87;;;1.63;;
14778;SDS011;7481;53.750;10.570;2024-02-23T23:15:12;4.27;;;1.67;;
14778;SDS011;7481;53.750;10.570;2024-02-23T23:19:35;6.43;;;1.87;;
14778;SDS011;7481;53.750;10.570;2024-02-23T23:24:11;3.80;;;1.97;;
14778;SDS011;7481;53.750;10.570;2024-02-23T23:28:39;2.03;;;1.60;;
14778;SDS011;7481;53.750;10.570;2024-02-23T23:33:02;2.70;;;1.33;;
14778;SDS011;7481;53.750;10.570;2024-02-23T23:37:34;2.97;;;1.67;;
14778;SDS011;7481;53.750;10.570;2024-02-23T23:42:04;4.47;;;1.73;;
14778;SDS011;7481;53.750;10.570;2024-02-23T23:46:39;1.40;;;1.27;;
14778;SDS011;7481;53.750;10.570;2024-02-23T23:51:16;6.53;;;2.13;;
14778;SDS011;7481;53.750;10.570;2024-02-23T23:55:48;5.53;;;1.87;;
